sensor_id;sensor_type;location;lat;lon;timestamp;P1;durP1;ratioP1;P2;durP2;ratioP2
5279;SDS011;2663;53.588;10.010;2023-04-28T00:01:26;13.40;;;8.50;;
5279;SDS011;2663;53.588;10.010;2023-04-28T00:03:53;14.37;;;8.63;;
5279;SDS011;2663;53.588;10.010;2023-04-28T00:06:20;12.23;;;7.87;;
5279;SDS011;2663;53.588;10.010;2023-04-28T00:08:47;18.20;;;8.33;;
5279;SDS011;2663;53.588;10.010;2023-04-28T00:11:14;16.67;;;9.43;;
5279;SDS011;2663;53.588;10.010;2023-04-28T00:13:41;18.47;;;9.57;;
5279;SDS011;2663;53.588;10.010;2023-04-28T00:16:07;25.03;;;9.57;;
5279;SDS011;2663;53.588;10.010;2023-04-28T00:18:34;12.87;;;8.43;;
5279;SDS011;2663;53.588;10.010;2023-04-28T00:21:01;13.33;;;9.10;;
5279;SDS011;2663;53.588;10.010;2023-04-28T00:23:27;19.13;;;10.23;;
5279;SDS011;2663;53.588;10.010;2023-04-28T00:25:54;17.00;;;9.07;;
5279;SDS011;2663;53.588;10.010;2023-04-28T00:28:22;18.93;;;9.10;;
5279;SDS011;2663;53.588;10.010;2023-04-28T00:30:59;18.83;;;9.50;;
5279;SDS011;2663;53.588;10.010;2023-04-28T00:33:25;18.70;;;8.77;;
5279;SDS011;2663;53.588;10.010;2023-04-28T00:35:58;15.63;;;8.90;;
5279;SDS011;2663;53.588;10.010;2023-04-28T00:38:26;17.37;;;8.90;;
5279;SDS011;2663;53.588;10.010;2023-04-28T00:40:53;14.03;;;8.50;;
5279;SDS011;2663;53.588;10.010;2023-04-28T00:43:19;13.47;;;7.30;;
5279;SDS011;2663;53.588;10.010;2023-04-28T00:45:47;16.93;;;8.93;;
5279;SDS011;2663;53.588;10.010;2023-04-28T00:48:15;13.80;;;9.07;;
5279;SDS011;2663;53.588;10.010;2023-04-28T00:50:42;16.53;;;8.97;;
5279;SDS011;2663;53.588;10.010;2023-04-28T00:53:10;14.73;;;7.63;;
5279;SDS011;2663;53.588;10.010;2023-04-28T00:55:38;17.13;;;7.70;;
5279;SDS011;2663;53.588;10.010;2023-04-28T00:58:05;13.57;;;8.63;;
5279;SDS011;2663;53.588;10.010;2023-04-28T01:00:32;15.63;;;9.00;;
5279;SDS011;2663;53.588;10.010;2023-04-28T01:02:59;16.53;;;8.87;;
5279;SDS011;2663;53.588;10.010;2023-04-28T01:05:27;18.43;;;8.87;;
5279;SDS011;2663;53.588;10.010;2023-04-28T01:07:55;11.67;;;8.60;;
5279;SDS011;2663;53.588;10.010;2023-04-28T01:10:21;13.00;;;8.70;;
5279;SDS011;2663;53.588;10.010;2023-04-28T01:12:48;18.63;;;9.10;;
5279;SDS011;2663;53.588;10.010;2023-04-28T01:15:16;12.13;;;8.03;;
5279;SDS011;2663;53.588;10.010;2023-04-28T01:17:47;15.40;;;7.60;;
5279;SDS011;2663;53.588;10.010;2023-04-28T01:20:14;13.27;;;9.37;;
5279;SDS011;2663;53.588;10.010;2023-04-28T01:22:41;14.63;;;8.83;;
5279;SDS011;2663;53.588;10.010;2023-04-28T01:25:07;15.43;;;8.53;;
5279;SDS011;2663;53.588;10.010;2023-04-28T01:27:34;14.23;;;7.97;;
5279;SDS011;2663;53.588;10.010;2023-04-28T01:30:01;14.40;;;8.20;;
5279;SDS011;2663;53.588;10.010;2023-04-28T01:32:28;17.93;;;8.67;;
5279;SDS011;2663;53.588;10.010;2023-04-28T01:34:54;16.70;;;7.73;;
5279;SDS011;2663;53.588;10.010;2023-04-28T01:37:21;16.13;;;8.40;;
5279;SDS011;2663;53.588;10.010;2023-04-28T01:39:48;15.03;;;7.80;;
5279;SDS011;2663;53.588;10.010;2023-04-28T01:42:14;12.90;;;7.70;;
5279;SDS011;2663;53.588;10.010;2023-04-28T01:44:41;12.00;;;7.23;;
5279;SDS011;2663;53.588;10.010;2023-04-28T01:47:08;13.30;;;7.93;;
5279;SDS011;2663;53.588;10.010;2023-04-28T01:49:34;18.57;;;9.00;;
5279;SDS011;2663;53.588;10.010;2023-04-28T01:52:01;16.10;;;7.90;;
5279;SDS011;2663;53.588;10.010;2023-04-28T01:54:28;22.10;;;8.10;;
5279;SDS011;2663;53.588;10.010;2023-04-28T01:56:55;14.83;;;8.10;;
5279;SDS011;2663;53.588;10.010;2023-04-28T01:59:21;12.97;;;7.20;;
5279;SDS011;2663;53.588;10.010;2023-04-28T02:01:48;10.00;;;6.97;;
5279;SDS011;2663;53.588;10.010;2023-04-28T02:04:15;12.43;;;8.10;;
5279;SDS011;2663;53.588;10.010;2023-04-28T02:06:42;10.00;;;7.53;;
5279;SDS011;2663;53.588;10.010;2023-04-28T02:09:09;10.40;;;7.40;;
5279;SDS011;2663;53.588;10.010;2023-04-28T02:11:35;19.10;;;7.87;;
5279;SDS011;2663;53.588;10.010;2023-04-28T02:14:02;13.63;;;8.07;;
5279;SDS011;2663;53.588;10.010;2023-04-28T02:16:29;15.13;;;8.37;;
5279;SDS011;2663;53.588;10.010;2023-04-28T02:18:55;16.53;;;7.87;;
5279;SDS011;2663;53.588;10.010;2023-04-28T02:21:22;15.60;;;7.40;;
5279;SDS011;2663;53.588;10.010;2023-04-28T02:23:49;14.37;;;7.60;;
5279;SDS011;2663;53.588;10.010;2023-04-28T02:26:16;13.20;;;8.13;;
5279;SDS011;2663;53.588;10.010;2023-04-28T02:28:42;9.53;;;6.90;;
5279;SDS011;2663;53.588;10.010;2023-04-28T02:31:09;13.10;;;7.93;;
5279;SDS011;2663;53.588;10.010;2023-04-28T02:33:36;18.37;;;8.97;;
5279;SDS011;2663;53.588;10.010;2023-04-28T02:36:04;14.47;;;8.60;;
5279;SDS011;2663;53.588;10.010;2023-04-28T02:38:31;21.57;;;9.97;;
5279;SDS011;2663;53.588;10.010;2023-04-28T02:40:58;24.27;;;8.57;;
5279;SDS011;2663;53.588;10.010;2023-04-28T02:43:26;15.60;;;8.33;;
5279;SDS011;2663;53.588;10.010;2023-04-28T02:45:53;13.67;;;7.90;;
5279;SDS011;2663;53.588;10.010;2023-04-28T02:48:20;13.83;;;8.60;;
5279;SDS011;2663;53.588;10.010;2023-04-28T02:50:47;11.03;;;8.53;;
5279;SDS011;2663;53.588;10.010;2023-04-28T02:53:14;12.50;;;8.47;;
5279;SDS011;2663;53.588;10.010;2023-04-28T02:55:41;14.23;;;9.47;;
5279;SDS011;2663;53.588;10.010;2023-04-28T02:58:07;16.17;;;8.70;;
5279;SDS011;2663;53.588;10.010;2023-04-28T03:00:34;13.10;;;8.37;;
5279;SDS011;2663;53.588;10.010;2023-04-28T03:03:01;19.63;;;8.80;;
5279;SDS011;2663;53.588;10.010;2023-04-28T03:05:28;11.67;;;8.50;;
5279;SDS011;2663;53.588;10.010;2023-04-28T03:07:55;12.20;;;8.30;;
5279;SDS011;2663;53.588;10.010;2023-04-28T03:10:21;11.37;;;7.17;;
5279;SDS011;2663;53.588;10.010;2023-04-28T03:12:48;17.10;;;8.20;;
5279;SDS011;2663;53.588;10.010;2023-04-28T03:15:15;18.43;;;8.23;;
5279;SDS011;2663;53.588;10.010;2023-04-28T03:17:42;13.10;;;8.60;;
5279;SDS011;2663;53.588;10.010;2023-04-28T03:20:08;18.90;;;8.57;;
5279;SDS011;2663;53.588;10.010;2023-04-28T03:22:36;15.60;;;8.27;;
5279;SDS011;2663;53.588;10.010;2023-04-28T03:25:03;13.20;;;7.33;;
5279;SDS011;2663;53.588;10.010;2023-04-28T03:27:31;14.37;;;7.60;;
5279;SDS011;2663;53.588;10.010;2023-04-28T03:29:57;24.93;;;8.07;;
5279;SDS011;2663;53.588;10.010;2023-04-28T03:32:24;12.87;;;8.20;;
5279;SDS011;2663;53.588;10.010;2023-04-28T03:34:51;17.50;;;7.43;;
5279;SDS011;2663;53.588;10.010;2023-04-28T03:37:17;9.90;;;7.27;;
5279;SDS011;2663;53.588;10.010;2023-04-28T03:39:44;12.90;;;7.70;;
5279;SDS011;2663;53.588;10.010;2023-04-28T03:42:11;20.10;;;8.37;;
5279;SDS011;2663;53.588;10.010;2023-04-28T03:44:37;13.63;;;7.30;;
5279;SDS011;2663;53.588;10.010;2023-04-28T03:47:04;12.83;;;7.23;;
5279;SDS011;2663;53.588;10.010;2023-04-28T03:49:30;10.73;;;7.10;;
5279;SDS011;2663;53.588;10.010;2023-04-28T03:51:57;15.00;;;7.67;;
5279;SDS011;2663;53.588;10.010;2023-04-28T03:54:24;12.30;;;6.63;;
5279;SDS011;2663;53.588;10.010;2023-04-28T03:56:51;10.50;;;6.10;;
5279;SDS011;2663;53.588;10.010;2023-04-28T03:59:17;11.40;;;7.47;;
5279;SDS011;2663;53.588;10.010;2023-04-28T04:01:44;16.80;;;8.23;;
5279;SDS011;2663;53.588;10.010;2023-04-28T04:04:11;15.70;;;7.40;;
5279;SDS011;2663;53.588;10.010;2023-04-28T04:06:38;19.47;;;6.80;;
5279;SDS011;2663;53.588;10.010;2023-04-28T04:09:05;12.40;;;6.43;;
5279;SDS011;2663;53.588;10.010;2023-04-28T04:11:31;10.73;;;5.90;;
5279;SDS011;2663;53.588;10.010;2023-04-28T04:13:58;9.90;;;6.30;;
5279;SDS011;2663;53.588;10.010;2023-04-28T04:16:25;10.63;;;6.43;;
5279;SDS011;2663;53.588;10.010;2023-04-28T04:18:52;8.97;;;7.07;;
5279;SDS011;2663;53.588;10.010;2023-04-28T04:21:18;11.37;;;6.90;;
5279;SDS011;2663;53.588;10.010;2023-04-28T04:23:45;8.60;;;6.67;;
5279;SDS011;2663;53.588;10.010;2023-04-28T04:26:12;10.00;;;6.57;;
5279;SDS011;2663;53.588;10.010;2023-04-28T04:28:38;17.80;;;7.10;;
5279;SDS011;2663;53.588;10.010;2023-04-28T04:31:05;14.90;;;7.23;;
5279;SDS011;2663;53.588;10.010;2023-04-28T04:33:33;14.37;;;6.30;;
5279;SDS011;2663;53.588;10.010;2023-04-28T04:36:00;13.00;;;6.53;;
5279;SDS011;2663;53.588;10.010;2023-04-28T04:38:27;10.70;;;6.33;;
5279;SDS011;2663;53.588;10.010;2023-04-28T04:40:53;10.07;;;6.40;;
5279;SDS011;2663;53.588;10.010;2023-04-28T04:43:20;19.00;;;6.20;;
5279;SDS011;2663;53.588;10.010;2023-04-28T04:45:47;11.50;;;5.90;;
5279;SDS011;2663;53.588;10.010;2023-04-28T04:48:14;10.80;;;5.90;;
5279;SDS011;2663;53.588;10.010;2023-04-28T04:50:40;9.40;;;6.03;;
5279;SDS011;2663;53.588;10.010;2023-04-28T04:53:08;14.27;;;6.80;;
5279;SDS011;2663;53.588;10.010;2023-04-28T04:55:40;10.10;;;6.70;;
5279;SDS011;2663;53.588;10.010;2023-04-28T04:58:07;10.13;;;6.47;;
5279;SDS011;2663;53.588;10.010;2023-04-28T05:00:34;14.03;;;5.97;;
5279;SDS011;2663;53.588;10.010;2023-04-28T05:03:02;11.30;;;6.33;;
5279;SDS011;2663;53.588;10.010;2023-04-28T05:05:31;9.03;;;6.17;;
5279;SDS011;2663;53.588;10.010;2023-04-28T05:07:58;7.07;;;4.63;;
5279;SDS011;2663;53.588;10.010;2023-04-28T05:10:25;18.23;;;6.30;;
5279;SDS011;2663;53.588;10.010;2023-04-28T05:12:52;9.03;;;5.70;;
5279;SDS011;2663;53.588;10.010;2023-04-28T05:15:19;14.17;;;5.07;;
5279;SDS011;2663;53.588;10.010;2023-04-28T05:17:46;8.00;;;4.80;;
5279;SDS011;2663;53.588;10.010;2023-04-28T05:20:13;6.97;;;5.00;;
5279;SDS011;2663;53.588;10.010;2023-04-28T05:22:40;7.63;;;5.07;;
5279;SDS011;2663;53.588;10.010;2023-04-28T05:25:07;6.50;;;4.43;;
5279;SDS011;2663;53.588;10.010;2023-04-28T05:27:34;6.43;;;4.97;;
5279;SDS011;2663;53.588;10.010;2023-04-28T05:30:05;8.50;;;4.87;;
5279;SDS011;2663;53.588;10.010;2023-04-28T05:32:36;13.10;;;4.93;;
5279;SDS011;2663;53.588;10.010;2023-04-28T05:35:03;6.57;;;5.50;;
5279;SDS011;2663;53.588;10.010;2023-04-28T05:37:30;15.50;;;4.80;;
5279;SDS011;2663;53.588;10.010;2023-04-28T05:39:56;6.23;;;4.07;;
5279;SDS011;2663;53.588;10.010;2023-04-28T05:42:23;7.50;;;4.40;;
5279;SDS011;2663;53.588;10.010;2023-04-28T05:44:50;5.27;;;4.10;;
5279;SDS011;2663;53.588;10.010;2023-04-28T05:47:16;8.60;;;5.17;;
5279;SDS011;2663;53.588;10.010;2023-04-28T05:49:43;16.10;;;4.90;;
5279;SDS011;2663;53.588;10.010;2023-04-28T05:52:10;7.47;;;4.40;;
5279;SDS011;2663;53.588;10.010;2023-04-28T05:54:36;9.37;;;4.50;;
5279;SDS011;2663;53.588;10.010;2023-04-28T05:57:03;8.40;;;6.93;;
5279;SDS011;2663;53.588;10.010;2023-04-28T05:59:30;5.97;;;3.60;;
5279;SDS011;2663;53.588;10.010;2023-04-28T06:01:57;13.60;;;4.10;;
5279;SDS011;2663;53.588;10.010;2023-04-28T06:04:24;6.13;;;4.30;;
5279;SDS011;2663;53.588;10.010;2023-04-28T06:06:51;7.93;;;4.20;;
5279;SDS011;2663;53.588;10.010;2023-04-28T06:09:18;6.07;;;3.70;;
5279;SDS011;2663;53.588;10.010;2023-04-28T06:11:45;9.33;;;4.53;;
5279;SDS011;2663;53.588;10.010;2023-04-28T06:14:12;4.60;;;3.67;;
5279;SDS011;2663;53.588;10.010;2023-04-28T06:16:38;9.80;;;3.30;;
5279;SDS011;2663;53.588;10.010;2023-04-28T06:19:06;3.87;;;3.00;;
5279;SDS011;2663;53.588;10.010;2023-04-28T06:21:32;5.77;;;4.03;;
5279;SDS011;2663;53.588;10.010;2023-04-28T06:23:59;9.27;;;3.60;;
5279;SDS011;2663;53.588;10.010;2023-04-28T06:26:27;5.77;;;2.73;;
5279;SDS011;2663;53.588;10.010;2023-04-28T06:28:54;4.87;;;3.37;;
5279;SDS011;2663;53.588;10.010;2023-04-28T06:31:20;9.63;;;3.17;;
5279;SDS011;2663;53.588;10.010;2023-04-28T06:33:47;7.50;;;3.80;;
5279;SDS011;2663;53.588;10.010;2023-04-28T06:36:14;4.60;;;3.10;;
5279;SDS011;2663;53.588;10.010;2023-04-28T06:38:43;10.87;;;3.03;;
5279;SDS011;2663;53.588;10.010;2023-04-28T06:41:10;5.07;;;3.17;;
5279;SDS011;2663;53.588;10.010;2023-04-28T06:43:37;8.73;;;3.20;;
5279;SDS011;2663;53.588;10.010;2023-04-28T06:46:03;6.73;;;2.90;;
5279;SDS011;2663;53.588;10.010;2023-04-28T06:48:30;5.03;;;2.67;;
5279;SDS011;2663;53.588;10.010;2023-04-28T06:50:57;10.07;;;3.37;;
5279;SDS011;2663;53.588;10.010;2023-04-28T06:53:24;7.10;;;3.37;;
5279;SDS011;2663;53.588;10.010;2023-04-28T06:55:50;5.53;;;3.10;;
5279;SDS011;2663;53.588;10.010;2023-04-28T06:58:17;3.40;;;3.10;;
5279;SDS011;2663;53.588;10.010;2023-04-28T07:00:44;4.50;;;2.43;;
5279;SDS011;2663;53.588;10.010;2023-04-28T07:03:11;10.30;;;2.73;;
5279;SDS011;2663;53.588;10.010;2023-04-28T07:05:38;6.50;;;2.70;;
5279;SDS011;2663;53.588;10.010;2023-04-28T07:08:05;6.23;;;3.27;;
5279;SDS011;2663;53.588;10.010;2023-04-28T07:10:31;6.50;;;3.63;;
5279;SDS011;2663;53.588;10.010;2023-04-28T07:12:58;6.93;;;3.10;;
5279;SDS011;2663;53.588;10.010;2023-04-28T07:15:25;9.97;;;3.67;;
5279;SDS011;2663;53.588;10.010;2023-04-28T07:17:52;7.23;;;3.47;;
5279;SDS011;2663;53.588;10.010;2023-04-28T07:20:19;8.93;;;3.23;;
5279;SDS011;2663;53.588;10.010;2023-04-28T07:22:46;7.03;;;2.40;;
5279;SDS011;2663;53.588;10.010;2023-04-28T07:25:13;6.97;;;3.43;;
5279;SDS011;2663;53.588;10.010;2023-04-28T07:27:40;4.30;;;2.67;;
5279;SDS011;2663;53.588;10.010;2023-04-28T07:30:07;5.50;;;3.13;;
5279;SDS011;2663;53.588;10.010;2023-04-28T07:32:50;6.63;;;3.23;;
5279;SDS011;2663;53.588;10.010;2023-04-28T07:35:17;3.10;;;2.77;;
5279;SDS011;2663;53.588;10.010;2023-04-28T07:37:44;4.90;;;3.00;;
5279;SDS011;2663;53.588;10.010;2023-04-28T07:40:11;4.90;;;3.03;;
5279;SDS011;2663;53.588;10.010;2023-04-28T07:42:38;7.03;;;3.70;;
5279;SDS011;2663;53.588;10.010;2023-04-28T07:45:04;9.90;;;3.80;;
5279;SDS011;2663;53.588;10.010;2023-04-28T07:47:32;6.50;;;3.37;;
5279;SDS011;2663;53.588;10.010;2023-04-28T07:49:58;8.20;;;3.30;;
5279;SDS011;2663;53.588;10.010;2023-04-28T07:52:28;5.00;;;3.70;;
5279;SDS011;2663;53.588;10.010;2023-04-28T07:54:55;6.00;;;3.50;;
5279;SDS011;2663;53.588;10.010;2023-04-28T07:57:21;3.13;;;2.80;;
5279;SDS011;2663;53.588;10.010;2023-04-28T07:59:48;7.47;;;3.73;;
5279;SDS011;2663;53.588;10.010;2023-04-28T08:02:15;8.50;;;3.30;;
5279;SDS011;2663;53.588;10.010;2023-04-28T08:04:44;4.30;;;3.20;;
5279;SDS011;2663;53.588;10.010;2023-04-28T08:07:12;3.93;;;3.17;;
5279;SDS011;2663;53.588;10.010;2023-04-28T08:09:39;6.70;;;3.40;;
5279;SDS011;2663;53.588;10.010;2023-04-28T08:12:08;6.73;;;3.17;;
5279;SDS011;2663;53.588;10.010;2023-04-28T08:14:34;5.33;;;3.20;;
5279;SDS011;2663;53.588;10.010;2023-04-28T08:17:01;9.00;;;2.53;;
5279;SDS011;2663;53.588;10.010;2023-04-28T08:19:28;10.83;;;3.90;;
5279;SDS011;2663;53.588;10.010;2023-04-28T08:21:54;5.50;;;3.40;;
5279;SDS011;2663;53.588;10.010;2023-04-28T08:24:21;5.30;;;2.50;;
5279;SDS011;2663;53.588;10.010;2023-04-28T08:26:48;3.70;;;2.70;;
5279;SDS011;2663;53.588;10.010;2023-04-28T08:29:14;4.33;;;2.87;;
5279;SDS011;2663;53.588;10.010;2023-04-28T08:31:41;11.70;;;3.60;;
5279;SDS011;2663;53.588;10.010;2023-04-28T08:34:08;7.67;;;3.30;;
5279;SDS011;2663;53.588;10.010;2023-04-28T08:36:35;4.00;;;2.60;;
5279;SDS011;2663;53.588;10.010;2023-04-28T08:39:02;7.07;;;3.80;;
5279;SDS011;2663;53.588;10.010;2023-04-28T08:41:31;4.57;;;2.70;;
5279;SDS011;2663;53.588;10.010;2023-04-28T08:43:58;6.23;;;3.00;;
5279;SDS011;2663;53.588;10.010;2023-04-28T08:46:24;8.10;;;2.90;;
5279;SDS011;2663;53.588;10.010;2023-04-28T08:48:54;5.87;;;3.53;;
5279;SDS011;2663;53.588;10.010;2023-04-28T08:51:27;5.30;;;3.50;;
5279;SDS011;2663;53.588;10.010;2023-04-28T08:53:59;9.03;;;3.10;;
5279;SDS011;2663;53.588;10.010;2023-04-28T08:56:50;5.20;;;3.77;;
5279;SDS011;2663;53.588;10.010;2023-04-28T08:59:17;2.83;;;2.63;;
5279;SDS011;2663;53.588;10.010;2023-04-28T09:01:46;12.03;;;3.63;;
5279;SDS011;2663;53.588;10.010;2023-04-28T09:04:15;14.63;;;3.50;;
5279;SDS011;2663;53.588;10.010;2023-04-28T09:06:44;16.67;;;2.70;;
5279;SDS011;2663;53.588;10.010;2023-04-28T09:09:18;4.80;;;3.00;;
5279;SDS011;2663;53.588;10.010;2023-04-28T09:11:51;7.70;;;3.50;;
5279;SDS011;2663;53.588;10.010;2023-04-28T09:14:23;12.10;;;3.67;;
5279;SDS011;2663;53.588;10.010;2023-04-28T09:16:51;3.70;;;3.13;;
5279;SDS011;2663;53.588;10.010;2023-04-28T09:19:18;11.63;;;3.30;;
5279;SDS011;2663;53.588;10.010;2023-04-28T09:21:55;8.30;;;3.43;;
5279;SDS011;2663;53.588;10.010;2023-04-28T09:24:29;11.53;;;3.87;;
5279;SDS011;2663;53.588;10.010;2023-04-28T09:27:01;6.63;;;3.40;;
5279;SDS011;2663;53.588;10.010;2023-04-28T09:29:29;9.50;;;3.50;;
5279;SDS011;2663;53.588;10.010;2023-04-28T09:32:17;7.60;;;3.70;;
5279;SDS011;2663;53.588;10.010;2023-04-28T09:34:46;5.57;;;2.70;;
5279;SDS011;2663;53.588;10.010;2023-04-28T09:37:21;7.80;;;3.77;;
5279;SDS011;2663;53.588;10.010;2023-04-28T09:40:02;8.10;;;3.30;;
5279;SDS011;2663;53.588;10.010;2023-04-28T09:45:11;5.90;;;3.10;;
5279;SDS011;2663;53.588;10.010;2023-04-28T09:47:40;10.37;;;3.87;;
5279;SDS011;2663;53.588;10.010;2023-04-28T09:50:09;6.73;;;3.40;;
5279;SDS011;2663;53.588;10.010;2023-04-28T09:52:40;5.83;;;4.10;;
5279;SDS011;2663;53.588;10.010;2023-04-28T09:55:07;4.93;;;3.53;;
5279;SDS011;2663;53.588;10.010;2023-04-28T09:57:36;7.80;;;3.63;;
5279;SDS011;2663;53.588;10.010;2023-04-28T10:00:05;9.17;;;3.60;;
5279;SDS011;2663;53.588;10.010;2023-04-28T10:02:34;6.63;;;3.53;;
5279;SDS011;2663;53.588;10.010;2023-04-28T10:05:05;5.90;;;3.87;;
5279;SDS011;2663;53.588;10.010;2023-04-28T10:07:37;3.77;;;3.40;;
5279;SDS011;2663;53.588;10.010;2023-04-28T10:10:05;11.20;;;4.10;;
5279;SDS011;2663;53.588;10.010;2023-04-28T10:12:33;7.43;;;4.10;;
5279;SDS011;2663;53.588;10.010;2023-04-28T10:15:03;7.70;;;3.73;;
5279;SDS011;2663;53.588;10.010;2023-04-28T10:17:30;12.50;;;4.50;;
5279;SDS011;2663;53.588;10.010;2023-04-28T10:19:58;16.10;;;4.10;;
5279;SDS011;2663;53.588;10.010;2023-04-28T10:25:35;5.30;;;3.80;;
5279;SDS011;2663;53.588;10.010;2023-04-28T10:28:03;17.33;;;4.40;;
5279;SDS011;2663;53.588;10.010;2023-04-28T10:30:32;8.17;;;3.60;;
5279;SDS011;2663;53.588;10.010;2023-04-28T10:35:42;25.03;;;4.90;;
5279;SDS011;2663;53.588;10.010;2023-04-28T10:38:13;13.03;;;3.70;;
5279;SDS011;2663;53.588;10.010;2023-04-28T10:40:48;11.93;;;4.60;;
5279;SDS011;2663;53.588;10.010;2023-04-28T10:58:45;10.70;;;5.13;;
5279;SDS011;2663;53.588;10.010;2023-04-28T11:03:55;11.60;;;4.20;;
5279;SDS011;2663;53.588;10.010;2023-04-28T11:06:27;8.63;;;4.10;;
5279;SDS011;2663;53.588;10.010;2023-04-28T11:08:55;7.23;;;4.53;;
5279;SDS011;2663;53.588;10.010;2023-04-28T11:11:26;6.33;;;4.03;;
5279;SDS011;2663;53.588;10.010;2023-04-28T11:16:53;9.70;;;4.37;;
5279;SDS011;2663;53.588;10.010;2023-04-28T11:19:21;15.87;;;4.07;;
5279;SDS011;2663;53.588;10.010;2023-04-28T11:21:50;13.27;;;5.80;;
5279;SDS011;2663;53.588;10.010;2023-04-28T11:24:18;11.17;;;4.87;;
5279;SDS011;2663;53.588;10.010;2023-04-28T11:26:45;7.70;;;4.20;;
5279;SDS011;2663;53.588;10.010;2023-04-28T11:29:12;6.60;;;4.87;;
5279;SDS011;2663;53.588;10.010;2023-04-28T11:31:46;6.30;;;4.00;;
5279;SDS011;2663;53.588;10.010;2023-04-28T11:34:19;16.63;;;4.10;;
5279;SDS011;2663;53.588;10.010;2023-04-28T11:36:46;15.03;;;5.50;;
5279;SDS011;2663;53.588;10.010;2023-04-28T11:39:13;7.50;;;4.13;;
5279;SDS011;2663;53.588;10.010;2023-04-28T11:41:41;9.73;;;5.00;;
5279;SDS011;2663;53.588;10.010;2023-04-28T11:44:11;17.00;;;5.37;;
5279;SDS011;2663;53.588;10.010;2023-04-28T11:46:46;14.23;;;4.67;;
5279;SDS011;2663;53.588;10.010;2023-04-28T11:49:25;20.47;;;6.03;;
5279;SDS011;2663;53.588;10.010;2023-04-28T11:51:56;15.70;;;4.30;;
5279;SDS011;2663;53.588;10.010;2023-04-28T11:54:29;7.03;;;3.87;;
5279;SDS011;2663;53.588;10.010;2023-04-28T11:56:56;8.13;;;4.70;;
5279;SDS011;2663;53.588;10.010;2023-04-28T11:59:30;13.60;;;4.40;;
5279;SDS011;2663;53.588;10.010;2023-04-28T12:02:03;8.77;;;4.33;;
5279;SDS011;2663;53.588;10.010;2023-04-28T12:07:09;10.87;;;5.00;;
5279;SDS011;2663;53.588;10.010;2023-04-28T12:09:44;7.67;;;4.53;;
5279;SDS011;2663;53.588;10.010;2023-04-28T12:12:14;9.63;;;4.63;;
5279;SDS011;2663;53.588;10.010;2023-04-28T12:15:12;10.53;;;4.50;;
5279;SDS011;2663;53.588;10.010;2023-04-28T12:17:39;5.20;;;4.30;;
5279;SDS011;2663;53.588;10.010;2023-04-28T12:20:08;4.10;;;3.80;;
5279;SDS011;2663;53.588;10.010;2023-04-28T12:22:43;13.07;;;4.80;;
5279;SDS011;2663;53.588;10.010;2023-04-28T12:25:15;8.53;;;4.80;;
5279;SDS011;2663;53.588;10.010;2023-04-28T12:27:58;11.90;;;5.57;;
5279;SDS011;2663;53.588;10.010;2023-04-28T12:30:31;7.63;;;4.10;;
5279;SDS011;2663;53.588;10.010;2023-04-28T12:32:58;20.20;;;6.00;;
5279;SDS011;2663;53.588;10.010;2023-04-28T12:35:26;13.70;;;4.07;;
5279;SDS011;2663;53.588;10.010;2023-04-28T12:37:54;9.70;;;5.20;;
5279;SDS011;2663;53.588;10.010;2023-04-28T12:40:21;8.40;;;4.03;;
5279;SDS011;2663;53.588;10.010;2023-04-28T12:42:49;7.30;;;4.63;;
5279;SDS011;2663;53.588;10.010;2023-04-28T12:45:16;10.30;;;4.87;;
5279;SDS011;2663;53.588;10.010;2023-04-28T12:47:43;7.70;;;4.67;;
5279;SDS011;2663;53.588;10.010;2023-04-28T12:50:10;8.57;;;5.17;;
5279;SDS011;2663;53.588;10.010;2023-04-28T12:52:37;10.70;;;5.00;;
5279;SDS011;2663;53.588;10.010;2023-04-28T12:55:03;12.70;;;6.00;;
5279;SDS011;2663;53.588;10.010;2023-04-28T12:57:30;13.97;;;6.07;;
5279;SDS011;2663;53.588;10.010;2023-04-28T12:59:57;21.20;;;10.77;;
5279;SDS011;2663;53.588;10.010;2023-04-28T13:02:24;18.83;;;6.10;;
5279;SDS011;2663;53.588;10.010;2023-04-28T13:04:51;16.10;;;5.17;;
5279;SDS011;2663;53.588;10.010;2023-04-28T13:07:18;10.03;;;5.43;;
5279;SDS011;2663;53.588;10.010;2023-04-28T13:09:45;12.93;;;4.97;;
5279;SDS011;2663;53.588;10.010;2023-04-28T13:12:13;8.27;;;5.37;;
5279;SDS011;2663;53.588;10.010;2023-04-28T13:14:40;8.00;;;5.30;;
5279;SDS011;2663;53.588;10.010;2023-04-28T13:17:07;12.17;;;4.87;;
5279;SDS011;2663;53.588;10.010;2023-04-28T13:19:35;14.10;;;5.10;;
5279;SDS011;2663;53.588;10.010;2023-04-28T13:22:02;6.37;;;4.60;;
5279;SDS011;2663;53.588;10.010;2023-04-28T13:24:30;11.43;;;5.30;;
5279;SDS011;2663;53.588;10.010;2023-04-28T13:26:58;7.03;;;4.50;;
5279;SDS011;2663;53.588;10.010;2023-04-28T13:29:25;5.83;;;4.33;;
5279;SDS011;2663;53.588;10.010;2023-04-28T13:31:52;9.63;;;4.70;;
5279;SDS011;2663;53.588;10.010;2023-04-28T13:34:19;10.77;;;5.13;;
5279;SDS011;2663;53.588;10.010;2023-04-28T13:36:46;12.50;;;5.33;;
5279;SDS011;2663;53.588;10.010;2023-04-28T13:39:15;12.83;;;4.90;;
5279;SDS011;2663;53.588;10.010;2023-04-28T13:41:45;9.20;;;4.90;;
5279;SDS011;2663;53.588;10.010;2023-04-28T13:44:11;11.00;;;5.40;;
5279;SDS011;2663;53.588;10.010;2023-04-28T13:46:39;16.07;;;6.10;;
5279;SDS011;2663;53.588;10.010;2023-04-28T13:49:06;9.17;;;5.83;;
5279;SDS011;2663;53.588;10.010;2023-04-28T13:51:34;11.57;;;5.37;;
5279;SDS011;2663;53.588;10.010;2023-04-28T13:54:01;14.93;;;5.87;;
5279;SDS011;2663;53.588;10.010;2023-04-28T13:56:34;8.60;;;5.90;;
5279;SDS011;2663;53.588;10.010;2023-04-28T13:59:01;14.50;;;5.97;;
5279;SDS011;2663;53.588;10.010;2023-04-28T14:01:28;6.67;;;5.20;;
5279;SDS011;2663;53.588;10.010;2023-04-28T14:03:55;14.20;;;7.93;;
5279;SDS011;2663;53.588;10.010;2023-04-28T14:06:22;9.70;;;6.17;;
5279;SDS011;2663;53.588;10.010;2023-04-28T14:08:49;9.00;;;5.80;;
5279;SDS011;2663;53.588;10.010;2023-04-28T14:11:15;9.80;;;5.83;;
5279;SDS011;2663;53.588;10.010;2023-04-28T14:13:42;9.73;;;6.40;;
5279;SDS011;2663;53.588;10.010;2023-04-28T14:16:09;11.70;;;6.13;;
5279;SDS011;2663;53.588;10.010;2023-04-28T14:18:37;10.77;;;6.10;;
5279;SDS011;2663;53.588;10.010;2023-04-28T14:21:04;14.83;;;6.50;;
5279;SDS011;2663;53.588;10.010;2023-04-28T14:23:33;13.50;;;5.93;;
5279;SDS011;2663;53.588;10.010;2023-04-28T14:26:03;15.20;;;6.10;;
5279;SDS011;2663;53.588;10.010;2023-04-28T14:28:30;21.33;;;8.00;;
5279;SDS011;2663;53.588;10.010;2023-04-28T14:30:56;18.57;;;8.67;;
5279;SDS011;2663;53.588;10.010;2023-04-28T14:33:23;13.63;;;5.57;;
5279;SDS011;2663;53.588;10.010;2023-04-28T14:35:50;9.30;;;5.23;;
5279;SDS011;2663;53.588;10.010;2023-04-28T14:38:16;10.90;;;5.60;;
5279;SDS011;2663;53.588;10.010;2023-04-28T14:40:43;15.40;;;6.37;;
5279;SDS011;2663;53.588;10.010;2023-04-28T14:43:10;14.77;;;6.80;;
5279;SDS011;2663;53.588;10.010;2023-04-28T14:45:36;10.10;;;6.13;;
5279;SDS011;2663;53.588;10.010;2023-04-28T14:48:03;9.60;;;5.07;;
5279;SDS011;2663;53.588;10.010;2023-04-28T14:50:32;14.60;;;6.57;;
5279;SDS011;2663;53.588;10.010;2023-04-28T14:52:58;14.77;;;6.53;;
5279;SDS011;2663;53.588;10.010;2023-04-28T14:55:30;17.07;;;7.13;;
5279;SDS011;2663;53.588;10.010;2023-04-28T14:57:57;15.47;;;6.13;;
5279;SDS011;2663;53.588;10.010;2023-04-28T15:00:24;20.03;;;6.80;;
5279;SDS011;2663;53.588;10.010;2023-04-28T15:02:51;15.30;;;6.67;;
5279;SDS011;2663;53.588;10.010;2023-04-28T15:05:18;13.50;;;6.50;;
5279;SDS011;2663;53.588;10.010;2023-04-28T15:07:45;12.93;;;5.70;;
5279;SDS011;2663;53.588;10.010;2023-04-28T15:10:12;18.43;;;7.53;;
5279;SDS011;2663;53.588;10.010;2023-04-28T15:12:38;19.97;;;7.17;;
5279;SDS011;2663;53.588;10.010;2023-04-28T15:15:05;24.70;;;10.07;;
5279;SDS011;2663;53.588;10.010;2023-04-28T15:17:32;13.47;;;6.73;;
5279;SDS011;2663;53.588;10.010;2023-04-28T15:19:59;17.90;;;6.87;;
5279;SDS011;2663;53.588;10.010;2023-04-28T15:22:26;22.23;;;6.80;;
5279;SDS011;2663;53.588;10.010;2023-04-28T15:24:53;20.83;;;7.60;;
5279;SDS011;2663;53.588;10.010;2023-04-28T15:27:20;23.00;;;9.27;;
5279;SDS011;2663;53.588;10.010;2023-04-28T15:29:48;17.10;;;6.70;;